createdAt,value
2019-04-27T00:01:23.291Z,14.03
2019-04-27T00:04:16.248Z,17.20
2019-04-27T00:06:46.629Z,14.23
2019-04-27T00:09:29.704Z,12.58
2019-04-27T00:12:05.668Z,13.45
2019-04-27T00:14:35.026Z,13.70
2019-04-27T00:17:14.615Z,16.30
2019-04-27T00:20:00.535Z,14.18
2019-04-27T00:22:38.527Z,15.08
2019-04-27T00:25:08.032Z,13.95
2019-04-27T00:27:37.419Z,14.70
2019-04-27T00:30:06.785Z,16.23
2019-04-27T00:32:39.688Z,14.03
2019-04-27T00:35:10.301Z,14.23
2019-04-27T00:37:57.828Z,16.40
2019-04-27T00:40:34.157Z,16.25
2019-04-27T00:43:03.595Z,17.02
2019-04-27T00:45:33.526Z,20.25
2019-04-27T00:48:03.505Z,14.78
2019-04-27T00:53:03.411Z,16.17
2019-04-27T00:55:34.657Z,15.65
2019-04-27T00:58:26.010Z,16.27
2019-04-27T01:01:04.286Z,15.40
2019-04-27T01:03:39.702Z,14.07
2019-04-27T01:06:09.235Z,15.38
2019-04-27T01:08:38.557Z,14.90
2019-04-27T01:11:07.805Z,14.07
2019-04-27T01:13:36.979Z,13.38
2019-04-27T01:16:06.508Z,13.53
2019-04-27T01:18:35.638Z,16.80
2019-04-27T01:21:04.854Z,16.30
2019-04-27T01:23:34.378Z,16.62
2019-04-27T01:26:38.777Z,15.68
2019-04-27T01:29:12.267Z,16.35
2019-04-27T01:31:41.608Z,16.12
2019-04-27T01:34:10.834Z,18.53
2019-04-27T01:36:40.067Z,17.35
2019-04-27T01:39:13.009Z,17.97
2019-04-27T01:41:42.410Z,18.77
2019-04-27T01:44:11.832Z,21.37
2019-04-27T01:46:40.975Z,20.50
2019-04-27T01:49:10.311Z,21.47
2019-04-27T01:51:39.466Z,19.80
2019-04-27T01:54:10.942Z,19.42
2019-04-27T01:56:40.093Z,18.52
2019-04-27T01:59:09.394Z,25.45
2019-04-27T02:01:56.353Z,23.63
2019-04-27T02:04:33.189Z,20.77
2019-04-27T02:07:04.661Z,22.10
2019-04-27T02:09:33.791Z,20.23
2019-04-27T02:12:03.192Z,21.25
2019-04-27T02:14:32.497Z,21.70
2019-04-27T02:17:03.643Z,20.87
2019-04-27T02:19:33.127Z,19.92
2019-04-27T02:22:02.511Z,19.25
2019-04-27T02:24:31.772Z,18.80
2019-04-27T02:27:01.147Z,20.93
2019-04-27T02:29:42.112Z,17.92
2019-04-27T02:32:29.255Z,17.80
2019-04-27T02:35:00.849Z,19.35
2019-04-27T02:37:30.572Z,15.58
2019-04-27T02:40:00.428Z,20.92
2019-04-27T02:42:35.449Z,15.40
2019-04-27T02:45:05.174Z,15.98
2019-04-27T02:47:34.268Z,16.37
2019-04-27T02:50:04.120Z,14.18
2019-04-27T02:52:44.042Z,14.80
2019-04-27T02:55:13.249Z,14.78
2019-04-27T02:57:42.447Z,13.20
2019-04-27T03:00:13.303Z,13.60
2019-04-27T03:02:53.462Z,15.35
2019-04-27T03:05:25.863Z,14.70
2019-04-27T03:07:55.250Z,12.35
2019-04-27T03:10:27.120Z,13.63
2019-04-27T03:13:19.842Z,13.22
2019-04-27T03:16:06.833Z,13.08
2019-04-27T03:19:14.966Z,14.15
2019-04-27T03:21:53.980Z,12.20
2019-04-27T03:24:42.293Z,12.50
2019-04-27T03:27:12.923Z,13.60
2019-04-27T03:29:42.526Z,11.30
2019-04-27T03:32:13.102Z,11.45
2019-04-27T03:34:42.558Z,10.32
2019-04-27T03:37:11.820Z,10.63
2019-04-27T03:39:41.125Z,8.83
2019-04-27T03:42:11.173Z,11.07
2019-04-27T03:44:40.513Z,11.43
2019-04-27T03:47:12.659Z,9.07
2019-04-27T03:49:41.797Z,8.80
2019-04-27T03:52:39.795Z,10.13
2019-04-27T03:55:15.704Z,8.78
2019-04-27T03:58:06.794Z,9.60
2019-04-27T04:00:36.195Z,8.55
2019-04-27T04:03:05.570Z,9.05
2019-04-27T04:05:34.753Z,13.17
2019-04-27T04:08:04.180Z,13.40
2019-04-27T04:10:35.249Z,10.95
2019-04-27T04:13:12.353Z,10.63
2019-04-27T04:16:07.602Z,11.38
2019-04-27T04:18:54.374Z,11.85
2019-04-27T04:21:23.907Z,12.33
2019-04-27T04:23:53.230Z,14.15
2019-04-27T04:26:22.510Z,12.88
2019-04-27T04:28:51.892Z,13.93
2019-04-27T04:31:21.365Z,12.03
2019-04-27T04:33:50.770Z,15.13
2019-04-27T04:36:20.478Z,15.48
2019-04-27T04:38:50.394Z,12.90
2019-04-27T04:44:12.465Z,16.15
2019-04-27T04:47:10.549Z,14.47
2019-04-27T04:49:40.090Z,13.93
2019-04-27T04:52:09.782Z,13.07
2019-04-27T04:54:40.857Z,15.58
2019-04-27T04:57:10.302Z,17.45
2019-04-27T04:59:39.639Z,18.00
2019-04-27T05:02:10.640Z,15.23
2019-04-27T05:04:39.739Z,16.75
2019-04-27T05:07:09.284Z,18.77
2019-04-27T05:09:39.567Z,16.60
2019-04-27T05:14:38.884Z,16.13
2019-04-27T05:17:09.475Z,15.85
2019-04-27T05:19:39.022Z,17.90
2019-04-27T05:22:09.364Z,18.15
2019-04-27T05:24:39.346Z,18.48
2019-04-27T05:27:09.251Z,17.50
2019-04-27T05:29:40.159Z,19.55
2019-04-27T05:32:09.423Z,22.75
2019-04-27T05:34:39.887Z,18.90
2019-04-27T05:37:09.088Z,20.95
2019-04-27T05:39:38.904Z,19.30
2019-04-27T05:42:10.966Z,21.70
2019-04-27T05:45:06.013Z,20.68
2019-04-27T05:47:43.331Z,20.65
2019-04-27T05:50:20.114Z,22.50
2019-04-27T05:52:46.647Z,19.62
2019-04-27T05:55:16.192Z,19.93
2019-04-27T05:57:45.302Z,22.48
2019-04-27T06:00:19.189Z,21.82
2019-04-27T06:02:48.806Z,22.00
2019-04-27T06:05:19.016Z,21.30
2019-04-27T06:10:19.786Z,22.65
2019-04-27T06:12:49.023Z,23.80
2019-04-27T06:15:19.824Z,20.90
2019-04-27T06:17:49.179Z,23.77
2019-04-27T06:20:18.931Z,21.10
2019-04-27T06:22:48.972Z,21.17
2019-04-27T06:25:21.476Z,21.07
2019-04-27T06:27:49.649Z,20.77
2019-04-27T06:30:19.311Z,19.98
2019-04-27T06:32:49.484Z,23.80
2019-04-27T06:37:49.269Z,18.37
2019-04-27T06:40:18.840Z,19.25
2019-04-27T06:42:48.664Z,19.32
2019-04-27T06:45:19.769Z,21.90
2019-04-27T06:47:51.190Z,21.60
2019-04-27T06:50:20.358Z,23.07
2019-04-27T06:52:49.421Z,26.95
2019-04-27T06:55:18.893Z,23.50
2019-04-27T06:57:49.051Z,28.95
2019-04-27T07:02:51.227Z,28.80
2019-04-27T07:05:20.580Z,29.82
2019-04-27T07:07:49.967Z,27.87
2019-04-27T07:10:19.112Z,30.35
2019-04-27T07:12:49.083Z,32.03
2019-04-27T07:15:20.402Z,30.80
2019-04-27T07:17:49.927Z,30.55
2019-04-27T07:20:19.511Z,29.32
2019-04-27T07:22:49.667Z,32.83
2019-04-27T07:25:19.227Z,27.82
2019-04-27T07:27:49.408Z,31.02
2019-04-27T07:30:19.255Z,33.73
2019-04-27T07:32:48.897Z,27.32
2019-04-27T07:35:19.634Z,29.27
2019-04-27T07:37:49.413Z,28.35
2019-04-27T07:40:18.939Z,30.65
2019-04-27T07:42:52.153Z,27.00
2019-04-27T07:45:31.835Z,26.35
2019-04-27T07:48:02.496Z,27.77
2019-04-27T07:50:32.036Z,30.05
2019-04-27T07:53:01.305Z,26.00
2019-04-27T07:55:30.704Z,31.33
2019-04-27T07:58:00.404Z,26.20
2019-04-27T08:00:29.850Z,26.80
2019-04-27T08:03:03.026Z,26.17
2019-04-27T08:05:34.641Z,27.52
2019-04-27T08:08:04.053Z,27.25
2019-04-27T08:10:33.228Z,28.17
2019-04-27T08:13:03.937Z,28.65
2019-04-27T08:15:33.110Z,27.02
2019-04-27T08:18:02.503Z,29.10
2019-04-27T08:20:31.905Z,25.52
2019-04-27T08:23:01.574Z,26.23
2019-04-27T08:25:31.132Z,26.50
2019-04-27T08:28:06.350Z,28.38
2019-04-27T08:30:58.519Z,27.37
2019-04-27T08:33:29.594Z,27.05
2019-04-27T08:35:59.204Z,26.90
2019-04-27T08:38:29.014Z,27.20
2019-04-27T08:40:59.226Z,28.95
2019-04-27T08:43:29.143Z,29.42
2019-04-27T08:46:00.329Z,32.10
2019-04-27T08:48:34.633Z,29.37
2019-04-27T08:51:00.512Z,32.38
2019-04-27T08:53:29.978Z,29.83
2019-04-27T08:55:59.550Z,28.90
2019-04-27T08:58:28.861Z,30.82
2019-04-27T09:00:59.051Z,33.57
2019-04-27T09:03:29.401Z,28.85
2019-04-27T09:06:06.361Z,30.95
2019-04-27T09:08:59.076Z,28.85
2019-04-27T09:11:43.828Z,26.40
2019-04-27T09:14:21.053Z,27.82
2019-04-27T09:17:09.485Z,27.60
2019-04-27T09:19:53.007Z,27.95
2019-04-27T09:22:22.315Z,26.02
2019-04-27T09:24:51.714Z,27.60
2019-04-27T09:27:20.922Z,32.42
2019-04-27T09:29:50.445Z,25.87
2019-04-27T09:32:19.611Z,28.83
2019-04-27T09:34:48.797Z,27.67
2019-04-27T09:37:18.187Z,24.50
2019-04-27T09:39:47.444Z,24.35
2019-04-27T09:42:16.921Z,22.30
2019-04-27T09:44:47.590Z,25.48
2019-04-27T09:47:17.153Z,22.42
2019-04-27T09:49:46.412Z,20.13
2019-04-27T09:52:24.357Z,17.47
2019-04-27T09:54:48.180Z,16.37
2019-04-27T09:57:17.614Z,17.87
2019-04-27T09:59:47.278Z,17.93
2019-04-27T10:02:16.797Z,17.73
2019-04-27T10:04:46.259Z,18.60
2019-04-27T10:07:16.522Z,13.78
2019-04-27T10:09:47.508Z,15.93
2019-04-27T10:12:17.027Z,17.07
2019-04-27T10:14:47.616Z,17.92
2019-04-27T10:17:20.137Z,18.42
2019-04-27T10:19:49.546Z,15.90
2019-04-27T10:22:19.003Z,16.33
2019-04-27T10:24:48.420Z,18.73
2019-04-27T10:27:19.127Z,14.80
2019-04-27T10:29:48.643Z,15.75
2019-04-27T10:32:18.128Z,16.32
2019-04-27T10:34:47.418Z,19.23
2019-04-27T10:37:16.831Z,19.50
2019-04-27T10:39:46.174Z,18.50
2019-04-27T10:42:15.943Z,14.60
2019-04-27T10:44:46.142Z,16.65
2019-04-27T10:47:16.140Z,15.30
2019-04-27T10:49:46.579Z,17.42
2019-04-27T10:52:16.732Z,17.70
2019-04-27T10:54:46.470Z,19.77
2019-04-27T10:57:15.933Z,17.77
2019-04-27T10:59:46.144Z,16.55
2019-04-27T11:02:17.946Z,16.85
2019-04-27T11:04:53.375Z,18.40
2019-04-27T11:07:26.013Z,15.43
2019-04-27T11:09:55.589Z,14.20
2019-04-27T11:12:25.059Z,16.67
2019-04-27T11:14:54.500Z,15.43
2019-04-27T11:17:23.781Z,13.22
2019-04-27T11:19:53.064Z,12.97
2019-04-27T11:22:22.514Z,14.90
2019-04-27T11:24:51.780Z,10.98
2019-04-27T11:27:21.966Z,15.10
2019-04-27T11:29:51.477Z,12.53
2019-04-27T11:32:20.830Z,14.47
2019-04-27T11:35:05.748Z,13.43
2019-04-27T11:37:37.364Z,12.60
2019-04-27T11:40:07.859Z,12.63
2019-04-27T11:42:37.393Z,10.55
2019-04-27T11:45:07.545Z,10.80
2019-04-27T11:47:36.911Z,11.05
2019-04-27T11:50:08.186Z,10.40
2019-04-27T11:52:37.832Z,13.10
2019-04-27T11:55:07.798Z,14.93
2019-04-27T11:57:37.633Z,12.43
2019-04-27T12:02:37.598Z,13.38
2019-04-27T12:05:07.992Z,12.10
2019-04-27T12:07:37.441Z,8.08
2019-04-27T12:10:07.037Z,7.35
2019-04-27T12:12:36.441Z,10.03
2019-04-27T12:15:06.231Z,9.98
2019-04-27T12:17:35.966Z,10.05
2019-04-27T12:20:06.050Z,9.10
2019-04-27T12:22:35.292Z,10.10
2019-04-27T12:25:06.527Z,8.37
2019-04-27T12:28:00.944Z,10.40
2019-04-27T12:30:44.220Z,12.40
2019-04-27T12:33:13.444Z,12.93
2019-04-27T12:35:42.835Z,13.95
2019-04-27T12:38:12.237Z,11.53
2019-04-27T12:40:41.681Z,11.97
2019-04-27T12:43:13.107Z,10.40
2019-04-27T12:45:43.681Z,11.65
2019-04-27T12:48:13.885Z,11.35
2019-04-27T12:50:43.394Z,10.85
2019-04-27T12:53:19.245Z,12.23
2019-04-27T12:56:08.892Z,12.33
2019-04-27T12:58:44.282Z,10.35
2019-04-27T13:01:15.844Z,14.68
2019-04-27T13:03:46.305Z,10.85
2019-04-27T13:06:15.670Z,9.93
2019-04-27T13:08:45.819Z,11.90
2019-04-27T13:11:16.220Z,11.25
2019-04-27T13:13:45.756Z,11.00
2019-04-27T13:16:16.611Z,13.45
2019-04-27T13:18:45.958Z,12.63
2019-04-27T13:21:16.014Z,11.87
2019-04-27T13:23:46.074Z,23.10
2019-04-27T13:26:16.457Z,24.90
2019-04-27T13:28:46.687Z,17.57
2019-04-27T13:31:16.354Z,14.58
2019-04-27T13:33:46.707Z,12.60
2019-04-27T13:36:16.673Z,11.80
2019-04-27T13:38:46.665Z,10.20
2019-04-27T13:43:46.437Z,7.12
2019-04-27T13:46:37.446Z,5.45
2019-04-27T13:49:26.409Z,4.85
2019-04-27T13:52:00.377Z,8.23
2019-04-27T13:54:29.521Z,13.38
2019-04-27T13:56:58.795Z,6.50
2019-04-27T13:59:28.236Z,17.70
2019-04-27T14:01:57.752Z,9.05
2019-04-27T14:04:27.052Z,7.33
2019-04-27T14:06:56.388Z,4.73
2019-04-27T14:09:25.723Z,2.98
2019-04-27T14:12:00.440Z,2.75
2019-04-27T14:14:29.619Z,3.45
2019-04-27T14:16:59.265Z,3.37
2019-04-27T14:19:28.646Z,3.12
2019-04-27T14:21:59.119Z,3.25
2019-04-27T14:24:41.225Z,3.27
2019-04-27T14:27:11.137Z,3.72
2019-04-27T14:29:40.443Z,4.47
2019-04-27T14:32:09.948Z,3.47
2019-04-27T14:34:39.296Z,3.12
2019-04-27T14:37:08.748Z,3.47
2019-04-27T14:39:39.000Z,3.92
2019-04-27T14:42:08.466Z,2.87
2019-04-27T14:44:38.937Z,4.25
2019-04-27T14:47:08.286Z,9.05
2019-04-27T14:49:39.106Z,5.08
2019-04-27T14:52:09.625Z,3.60
2019-04-27T14:54:46.047Z,4.72
2019-04-27T14:57:10.120Z,5.10
2019-04-27T14:59:39.446Z,4.25
2019-04-27T15:02:09.843Z,10.90
2019-04-27T15:04:41.809Z,9.35
2019-04-27T15:07:10.794Z,5.03
2019-04-27T15:09:40.242Z,6.53
2019-04-27T15:12:09.539Z,12.00
2019-04-27T15:14:38.991Z,9.17
2019-04-27T15:17:10.443Z,6.92
2019-04-27T15:19:48.370Z,15.53
2019-04-27T15:22:23.118Z,13.18
2019-04-27T15:25:07.757Z,8.15
2019-04-27T15:27:30.910Z,6.08
2019-04-27T15:30:08.625Z,6.22
2019-04-27T15:33:00.419Z,5.83
2019-04-27T15:35:40.656Z,8.23
2019-04-27T15:38:15.087Z,9.03
2019-04-27T15:41:12.854Z,7.00
2019-04-27T15:43:42.765Z,6.17
2019-04-27T15:48:40.618Z,6.62
2019-04-27T15:51:17.418Z,8.40
2019-04-27T15:53:45.997Z,7.22
2019-04-27T15:56:14.896Z,6.60
2019-04-27T15:58:44.302Z,4.78
2019-04-27T16:01:13.772Z,6.80
2019-04-27T16:03:42.915Z,3.92
2019-04-27T16:06:12.201Z,4.97
2019-04-27T16:08:45.265Z,5.70
2019-04-27T16:11:16.688Z,5.80
2019-04-27T16:13:43.090Z,5.50
2019-04-27T16:16:12.546Z,5.47
2019-04-27T16:18:41.804Z,5.75
2019-04-27T16:21:11.255Z,7.08
2019-04-27T16:23:43.150Z,6.92
2019-04-27T16:26:14.897Z,6.55
2019-04-27T16:28:49.642Z,7.62
2019-04-27T16:31:14.482Z,7.75
2019-04-27T16:33:43.826Z,8.73
2019-04-27T16:36:14.805Z,7.67
2019-04-27T16:38:51.791Z,7.12
2019-04-27T16:41:20.966Z,6.08
2019-04-27T16:43:50.183Z,7.17
2019-04-27T16:46:21.338Z,8.28
2019-04-27T16:48:50.367Z,7.65
2019-04-27T16:51:19.634Z,6.67
2019-04-27T16:53:49.304Z,6.55
2019-04-27T16:56:20.640Z,5.70
2019-04-27T16:58:56.546Z,4.72
2019-04-27T17:01:25.472Z,6.17
2019-04-27T17:03:55.313Z,6.55
2019-04-27T17:06:24.892Z,7.47
2019-04-27T17:08:57.484Z,7.67
2019-04-27T17:11:25.100Z,7.87
2019-04-27T17:13:59.567Z,7.65
2019-04-27T17:16:43.543Z,8.40
2019-04-27T17:19:41.298Z,6.35
2019-04-27T17:22:10.347Z,7.22
2019-04-27T17:24:43.956Z,7.37
2019-04-27T17:27:11.715Z,6.55
2019-04-27T17:29:41.682Z,21.77
2019-04-27T17:32:25.631Z,14.28
2019-04-27T17:34:55.649Z,6.58
2019-04-27T17:37:32.240Z,7.30
2019-04-27T17:39:58.080Z,7.85
2019-04-27T17:42:30.618Z,5.97
2019-04-27T17:45:00.460Z,8.28
2019-04-27T17:47:30.038Z,7.05
2019-04-27T17:52:27.638Z,6.37
2019-04-27T17:54:56.837Z,7.30
2019-04-27T17:57:26.521Z,6.00
2019-04-27T18:00:00.088Z,6.55
2019-04-27T18:02:29.315Z,7.05
2019-04-27T18:04:58.914Z,7.78
2019-04-27T18:07:30.123Z,5.95
2019-04-27T18:09:58.963Z,7.83
2019-04-27T18:12:28.503Z,6.93
2019-04-27T18:14:58.181Z,7.20
2019-04-27T18:17:28.722Z,6.78
2019-04-27T18:20:00.842Z,8.60
2019-04-27T18:22:36.504Z,5.33
2019-04-27T18:25:09.540Z,7.45
2019-04-27T18:27:46.037Z,8.28
2019-04-27T18:30:28.180Z,10.78
2019-04-27T18:33:01.990Z,8.48
2019-04-27T18:35:32.653Z,8.83
2019-04-27T18:38:02.221Z,8.58
2019-04-27T18:40:32.315Z,7.00
2019-04-27T18:43:06.553Z,7.40
2019-04-27T18:45:39.674Z,9.28
2019-04-27T18:48:13.461Z,8.78
2019-04-27T18:51:02.641Z,8.18
2019-04-27T18:53:31.852Z,8.30
2019-04-27T18:56:05.342Z,10.78
2019-04-27T18:58:32.881Z,10.23
2019-04-27T19:01:02.287Z,15.20
2019-04-27T19:03:31.850Z,11.18
2019-04-27T19:06:01.498Z,16.23
2019-04-27T19:08:30.771Z,11.10
2019-04-27T19:11:00.470Z,8.88
2019-04-27T19:13:30.559Z,10.03
2019-04-27T19:16:00.226Z,8.90
2019-04-27T19:18:30.325Z,10.75
2019-04-27T19:20:59.868Z,8.45
2019-04-27T19:23:30.042Z,8.08
2019-04-27T19:26:21.191Z,8.33
2019-04-27T19:29:04.219Z,6.90
2019-04-27T19:31:38.291Z,5.60
2019-04-27T19:34:08.001Z,4.15
2019-04-27T19:36:38.678Z,3.10
2019-04-27T19:39:09.263Z,3.83
2019-04-27T19:41:40.489Z,3.95
2019-04-27T19:44:10.218Z,3.50
2019-04-27T19:46:40.258Z,3.70
2019-04-27T19:49:10.384Z,4.55
2019-04-27T19:51:39.648Z,4.67
2019-04-27T19:54:09.188Z,6.27
2019-04-27T19:56:38.579Z,3.02
2019-04-27T19:59:13.987Z,3.65
2019-04-27T20:01:45.987Z,3.55
2019-04-27T20:04:21.801Z,3.00
2019-04-27T20:06:51.114Z,2.85
2019-04-27T20:09:28.323Z,3.33
2019-04-27T20:11:57.647Z,2.52
2019-04-27T20:14:26.950Z,2.40
2019-04-27T20:16:56.141Z,2.52
2019-04-27T20:19:25.468Z,2.73
2019-04-27T20:21:54.747Z,3.40
2019-04-27T20:24:23.998Z,3.53
2019-04-27T20:26:53.267Z,3.80
2019-04-27T20:29:23.923Z,3.40
2019-04-27T20:31:53.207Z,3.35
2019-04-27T20:34:22.887Z,4.67
2019-04-27T20:36:52.904Z,2.58
2019-04-27T20:39:22.283Z,2.52
2019-04-27T20:41:51.602Z,1.90
2019-04-27T20:44:21.122Z,3.10
2019-04-27T20:46:51.389Z,2.65
2019-04-27T20:49:21.211Z,2.90
2019-04-27T20:52:02.002Z,2.45
2019-04-27T20:54:32.680Z,3.15
2019-04-27T20:57:01.931Z,3.08
2019-04-27T20:59:31.334Z,2.90
2019-04-27T21:02:19.734Z,2.95
2019-04-27T21:04:49.772Z,3.98
2019-04-27T21:07:21.073Z,2.83
2019-04-27T21:09:50.623Z,2.72
2019-04-27T21:12:22.450Z,3.30
2019-04-27T21:14:52.030Z,3.52
2019-04-27T21:17:21.815Z,2.85
2019-04-27T21:19:51.522Z,3.15
2019-04-27T21:22:21.292Z,3.50
2019-04-27T21:24:51.483Z,3.70
2019-04-27T21:27:21.614Z,4.75
2019-04-27T21:29:51.616Z,3.15
2019-04-27T21:32:22.454Z,3.60
2019-04-27T21:34:51.857Z,3.85
2019-04-27T21:37:25.300Z,2.95
2019-04-27T21:40:15.103Z,2.60
2019-04-27T21:42:44.433Z,3.25
2019-04-27T21:45:14.519Z,3.80
2019-04-27T21:50:13.142Z,4.53
2019-04-27T21:52:49.594Z,3.60
2019-04-27T21:55:21.809Z,3.40
2019-04-27T21:57:51.341Z,4.00
2019-04-27T22:00:45.241Z,3.92
2019-04-27T22:03:16.340Z,4.20
2019-04-27T22:05:46.270Z,4.33
2019-04-27T22:08:16.106Z,3.35
2019-04-27T22:10:46.645Z,3.62
2019-04-27T22:13:16.152Z,3.60
2019-04-27T22:15:45.444Z,2.70
2019-04-27T22:18:14.800Z,3.67
2019-04-27T22:20:44.116Z,3.90
2019-04-27T22:23:22.979Z,3.80
2019-04-27T22:25:54.427Z,2.92
2019-04-27T22:28:22.933Z,3.05
2019-04-27T22:30:52.395Z,3.27
2019-04-27T22:33:21.656Z,3.55
2019-04-27T22:35:51.790Z,3.75
2019-04-27T22:38:21.422Z,2.50
2019-04-27T22:41:02.959Z,2.90
2019-04-27T22:43:56.209Z,3.05
2019-04-27T22:46:26.200Z,3.15
2019-04-27T22:48:55.634Z,3.25
2019-04-27T22:51:24.901Z,3.35
2019-04-27T22:53:54.559Z,3.33
2019-04-27T22:56:24.461Z,3.67
2019-04-27T22:59:16.157Z,3.20
2019-04-27T23:01:52.066Z,3.47
2019-04-27T23:04:27.430Z,3.90
2019-04-27T23:06:57.263Z,3.45
2019-04-27T23:09:26.625Z,4.03
2019-04-27T23:11:55.969Z,4.10
2019-04-27T23:14:25.173Z,3.35
2019-04-27T23:16:57.130Z,2.67
2019-04-27T23:19:26.325Z,3.62
2019-04-27T23:21:57.624Z,3.52
2019-04-27T23:24:26.924Z,3.72
2019-04-27T23:26:56.444Z,3.50
2019-04-27T23:29:25.713Z,5.33
2019-04-27T23:32:01.723Z,2.97
2019-04-27T23:34:31.526Z,3.37
2019-04-27T23:37:01.013Z,3.35
2019-04-27T23:39:30.562Z,3.47
2019-04-27T23:42:06.742Z,4.08
2019-04-27T23:44:33.982Z,3.62
2019-04-27T23:47:03.229Z,4.78
2019-04-27T23:49:32.796Z,4.20
2019-04-27T23:52:08.504Z,4.25
2019-04-27T23:54:37.860Z,3.58
2019-04-27T23:57:07.372Z,4.23
2019-04-27T23:59:36.709Z,4.65
